Time;durP1;ratioP1;P1;durP2;ratioP2;P2;SDS_P1;SDS_P2;PMS_P1;PMS_P2;Temp;Humidity;BMP_temperature;BMP_pressure;BME280_temperature;BME280_humidity;BME280_pressure;Samples;Min_cycle;Max_cycle;Signal;HPM_P1;HPM_P2
2022/04/12 00:00:09;;;;;;;9.13;8.33;;;8.00;99.90;;;;;;5153400;27;20696;-83
2022/04/12 00:02:36;;;;;;;9.67;8.87;;;7.90;99.90;;;;;;5147365;27;20653;-83
2022/04/12 00:05:03;;;;;;;8.87;7.67;;;8.10;99.90;;;;;;5147853;27;20975;-83
2022/04/12 00:07:29;;;;;;;8.10;7.40;;;7.70;99.90;;;;;;5147311;27;20628;-83
2022/04/12 00:09:56;;;;;;;9.40;8.43;;;8.00;99.90;;;;;;5147174;27;20645;-83
2022/04/12 00:12:37;;;;;;;10.65;7.78;;;7.90;99.90;;;;;;3110198;27;10022889;-83
2022/04/12 00:15:05;;;;;;;9.27;8.50;;;7.90;99.90;;;;;;5142726;27;20666;-83
2022/04/12 00:20:18;;;;;;;9.10;7.93;;;7.40;99.90;;;;;;5143823;27;20726;-83
2022/04/12 00:22:46;;;;;;;7.80;7.10;;;7.20;99.90;;;;;;5145188;27;20726;-83
2022/04/12 00:25:13;;;;;;;8.37;7.50;;;7.80;99.90;;;;;;5151194;27;20629;-83
2022/04/12 00:27:41;;;;;;;7.80;7.00;;;7.30;99.90;;;;;;5148100;27;20625;-83
2022/04/12 00:30:11;;;;;;;7.83;6.60;;;7.70;99.90;;;;;;5146855;27;20656;-82
2022/04/12 00:32:40;;;;;;;9.10;8.20;;;7.70;99.90;;;;;;5148140;27;20670;-83
2022/04/12 00:35:08;;;;;;;7.70;7.10;;;7.60;99.90;;;;;;5148357;27;20636;-83
2022/04/12 00:37:36;;;;;;;7.10;6.60;;;7.50;99.90;;;;;;5147137;27;20668;-83
2022/04/12 00:40:03;;;;;;;7.17;6.50;;;7.40;99.90;;;;;;5149043;27;20691;-83
2022/04/12 00:42:30;;;;;;;7.63;7.03;;;7.60;99.90;;;;;;5147399;27;20674;-83
2022/04/12 00:44:57;;;;;;;11.03;8.17;;;7.40;99.90;;;;;;5143353;27;20648;-83
2022/04/12 00:47:24;;;;;;;8.73;7.90;;;7.70;99.90;;;;;;5147736;27;20612;-82
2022/04/12 00:49:52;;;;;;;7.13;6.63;;;7.50;99.90;;;;;;5145725;27;20643;-83
2022/04/12 00:52:19;;;;;;;7.87;7.33;;;7.20;99.90;;;;;;5141682;27;20643;-83
2022/04/12 00:54:47;;;;;;;7.20;6.50;;;7.10;99.90;;;;;;5148033;27;20636;-83
2022/04/12 00:57:14;;;;;;;7.50;6.90;;;7.50;99.90;;;;;;5145088;27;20623;-82
2022/04/12 00:59:44;;;;;;;8.50;7.60;;;7.20;99.90;;;;;;5144213;27;20642;-83
2022/04/12 01:02:11;;;;;;;8.30;7.60;;;7.40;99.90;;;;;;5147985;27;20983;-83
2022/04/12 01:04:38;;;;;;;7.57;6.90;;;6.80;99.90;;;;;;5147081;27;20668;-82
2022/04/12 01:07:07;;;;;;;6.83;6.33;;;7.00;99.90;;;;;;5143907;27;20632;-82
2022/04/12 01:09:33;;;;;;;7.20;6.50;;;7.40;99.90;;;;;;5146167;27;21135;-85
2022/04/12 01:12:09;;;;;;;7.77;6.97;;;7.00;99.90;;;;;;5147973;27;20634;-84
2022/04/12 01:14:37;;;;;;;9.77;8.77;;;6.90;99.90;;;;;;5141430;27;20616;-82
2022/04/12 01:17:06;;;;;;;10.80;7.73;;;7.20;99.90;;;;;;5145044;27;20670;-85
2022/04/12 01:19:33;;;;;;;7.67;6.63;;;7.30;99.90;;;;;;5141016;27;20965;-83
2022/04/12 01:22:04;;;;;;;7.37;6.77;;;7.00;99.90;;;;;;5143266;27;20645;-82
2022/04/12 01:24:33;;;;;;;6.90;6.33;;;7.10;99.90;;;;;;5136732;27;20663;-83
2022/04/12 01:27:00;;;;;;;7.07;6.47;;;6.90;99.90;;;;;;5145173;27;20983;-83
2022/04/12 01:29:31;;;;;;;7.43;6.83;;;7.30;99.90;;;;;;5143505;27;20638;-83
2022/04/12 01:31:58;;;;;;;7.67;6.73;;;7.40;99.90;;;;;;5143487;27;21135;-83
2022/04/12 01:34:25;;;;;;;6.80;6.30;;;7.30;99.90;;;;;;5143099;27;20622;-85
2022/04/12 01:36:52;;;;;;;7.43;6.83;;;6.80;99.90;;;;;;5140840;27;20619;-84
2022/04/12 01:39:18;;;;;;;6.53;6.03;;;7.10;99.90;;;;;;5142065;27;21062;-84
2022/04/12 01:41:48;;;;;;;8.13;6.50;;;7.20;99.90;;;;;;5150604;27;20632;-85
2022/04/12 01:44:15;;;;;;;6.83;6.27;;;7.00;99.90;;;;;;5141345;27;20665;-84
2022/04/12 01:46:42;;;;;;;8.07;7.27;;;7.10;99.90;;;;;;5141818;27;20627;-85
2022/04/12 01:49:08;;;;;;;7.40;6.80;;;6.80;99.90;;;;;;5142860;27;20628;-84
2022/04/12 01:51:35;;;;;;;6.83;6.23;;;6.40;99.90;;;;;;5143536;27;20653;-82
2022/04/12 01:54:02;;;;;;;7.77;7.10;;;6.80;99.90;;;;;;5140542;27;20606;-84
2022/04/12 01:56:31;;;;;;;8.03;7.33;;;7.00;99.90;;;;;;5140488;27;21089;-83
2022/04/12 01:59:00;;;;;;;7.33;6.53;;;6.90;99.90;;;;;;5140892;27;20631;-83
2022/04/12 02:01:27;;;;;;;7.07;6.20;;;6.90;99.90;;;;;;5145072;27;20652;-83
2022/04/12 02:03:54;;;;;;;7.10;6.40;;;6.80;99.90;;;;;;5141317;27;20683;-83
2022/04/12 02:06:20;;;;;;;7.47;6.80;;;6.50;99.90;;;;;;5147906;27;20692;-83
2022/04/12 02:08:47;;;;;;;7.20;6.57;;;6.90;99.90;;;;;;5139996;27;20641;-83
2022/04/12 02:11:14;;;;;;;6.83;6.33;;;6.60;99.90;;;;;;5144935;27;21004;-83
2022/04/12 02:13:41;;;;;;;7.40;6.80;;;6.50;99.90;;;;;;5141147;27;20622;-83
2022/04/12 02:16:09;;;;;;;7.97;7.23;;;6.40;99.90;;;;;;5141759;27;20621;-83
2022/04/12 02:18:36;;;;;;;7.17;6.57;;;6.80;99.90;;;;;;5145610;27;20620;-83
2022/04/12 02:21:02;;;;;;;6.70;6.10;;;6.70;99.90;;;;;;5141427;27;20648;-83
2022/04/12 02:23:29;;;;;;;7.70;7.00;;;6.60;99.90;;;;;;5140415;27;20658;-83
2022/04/12 02:25:56;;;;;;;6.67;6.17;;;6.80;99.90;;;;;;5145107;27;20621;-83
2022/04/12 02:28:22;;;;;;;7.17;6.57;;;6.70;99.90;;;;;;5141696;27;20626;-83
2022/04/12 02:30:49;;;;;;;6.90;6.30;;;6.60;99.90;;;;;;5145807;27;20653;-83
2022/04/12 02:33:17;;;;;;;7.73;7.13;;;6.20;99.90;;;;;;5139904;27;20629;-83
2022/04/12 02:35:44;;;;;;;7.20;6.60;;;6.60;99.90;;;;;;5143346;27;20635;-83
2022/04/12 02:38:11;;;;;;;5.90;5.50;;;6.50;99.90;;;;;;5142943;27;21161;-83
2022/04/12 02:40:37;;;;;;;7.40;6.80;;;6.20;99.90;;;;;;5140384;27;20668;-83
2022/04/12 02:43:04;;;;;;;7.00;6.40;;;6.30;99.90;;;;;;5142857;27;20636;-84
2022/04/12 02:45:31;;;;;;;7.57;6.87;;;6.20;99.90;;;;;;5140142;27;20626;-84
2022/04/12 02:47:57;;;;;;;7.70;6.93;;;6.50;99.90;;;;;;5143253;27;21007;-84
2022/04/12 02:50:27;;;;;;;7.53;6.83;;;6.30;99.90;;;;;;5142740;27;20669;-84
2022/04/12 02:52:54;;;;;;;7.10;6.60;;;5.90;99.90;;;;;;5135044;27;21124;-84
2022/04/12 02:55:21;;;;;;;7.40;6.80;;;6.20;99.90;;;;;;5138943;27;20988;-83
2022/04/12 02:57:48;;;;;;;7.70;7.00;;;6.30;99.90;;;;;;5145984;27;21242;-82
2022/04/12 03:00:15;;;;;;;7.90;7.20;;;6.10;99.90;;;;;;5141172;27;21015;-83
2022/04/12 03:02:42;;;;;;;8.90;8.20;;;6.20;99.90;;;;;;5148327;27;20649;-82
2022/04/12 03:05:10;;;;;;;7.70;7.10;;;5.60;99.90;;;;;;5145723;27;20665;-82
2022/04/12 03:07:38;;;;;;;7.10;6.60;;;5.90;99.90;;;;;;5141367;27;21187;-82
2022/04/12 03:10:05;;;;;;;6.90;6.37;;;6.30;99.90;;;;;;5135225;27;20614;-82
2022/04/12 03:12:32;;;;;;;8.40;7.60;;;6.10;99.90;;;;;;5146646;27;20704;-82
2022/04/12 03:14:59;;;;;;;7.43;6.87;;;5.90;99.90;;;;;;5148282;27;20617;-82
2022/04/12 03:17:26;;;;;;;7.87;7.23;;;5.80;99.90;;;;;;5141716;27;20622;-82
2022/04/12 03:19:53;;;;;;;8.33;7.63;;;5.90;99.90;;;;;;5143857;27;20617;-82
2022/04/12 03:22:19;;;;;;;6.90;6.40;;;5.80;99.90;;;;;;5142865;27;20661;-82
2022/04/12 03:24:47;;;;;;;8.17;7.57;;;5.90;99.90;;;;;;5144261;27;20657;-82
2022/04/12 03:27:14;;;;;;;7.90;7.30;;;6.10;99.90;;;;;;5150454;27;20673;-82
2022/04/12 03:29:41;;;;;;;8.30;7.50;;;5.90;99.90;;;;;;5147076;27;20605;-82
2022/04/12 03:32:08;;;;;;;7.40;6.90;;;6.00;99.90;;;;;;5141129;27;20653;-82
2022/04/12 03:34:39;;;;;;;8.10;7.40;;;5.80;99.90;;;;;;5148118;27;20626;-82
2022/04/12 03:37:06;;;;;;;8.13;7.43;;;5.30;99.90;;;;;;5144322;27;20616;-82
2022/04/12 03:39:32;;;;;;;8.17;7.47;;;5.80;99.90;;;;;;5145863;27;20636;-84
2022/04/12 03:42:01;;;;;;;7.53;6.83;;;5.50;99.90;;;;;;5144658;27;20641;-82
2022/04/12 03:44:27;;;;;;;8.10;7.50;;;5.80;99.90;;;;;;5143548;27;20677;-82
2022/04/12 03:46:54;;;;;;;9.23;8.43;;;5.60;99.90;;;;;;5147769;27;21022;-82
2022/04/12 03:49:21;;;;;;;7.73;7.23;;;5.70;99.90;;;;;;5137828;27;20634;-82
2022/04/12 03:51:47;;;;;;;6.57;6.07;;;5.80;99.90;;;;;;5147233;27;20630;-82
2022/04/12 03:54:14;;;;;;;7.73;7.13;;;5.60;99.90;;;;;;5141965;27;20993;-82
2022/04/12 03:56:42;;;;;;;9.03;7.17;;;5.20;99.90;;;;;;5144549;27;20621;-82
2022/04/12 03:59:11;;;;;;;7.93;7.10;;;5.60;99.90;;;;;;5145269;27;21251;-82
2022/04/12 04:01:38;;;;;;;8.27;7.30;;;5.50;99.90;;;;;;5146516;27;20644;-84
2022/04/12 04:04:05;;;;;;;7.40;6.90;;;5.80;99.90;;;;;;5122440;27;20676;-82
2022/04/12 04:06:31;;;;;;;7.50;6.90;;;5.70;99.90;;;;;;5140738;27;21013;-84
2022/04/12 04:08:58;;;;;;;8.77;6.80;;;5.50;99.90;;;;;;5136939;27;21096;-83
2022/04/12 04:11:25;;;;;;;8.30;7.60;;;5.60;99.90;;;;;;5147935;27;21201;-82
2022/04/12 04:13:52;;;;;;;8.13;7.53;;;5.40;99.90;;;;;;5143941;27;20641;-82
2022/04/12 04:16:20;;;;;;;8.53;7.63;;;5.30;99.90;;;;;;5141969;27;20628;-82
2022/04/12 04:18:46;;;;;;;8.30;7.60;;;5.70;99.90;;;;;;5144613;27;20629;-82
2022/04/12 04:21:13;;;;;;;10.20;9.40;;;5.50;99.90;;;;;;5144255;27;20663;-83
2022/04/12 04:23:40;;;;;;;8.70;7.90;;;5.50;99.90;;;;;;5141603;27;20686;-82
2022/04/12 04:26:06;;;;;;;8.07;7.37;;;5.50;99.90;;;;;;5126584;27;20645;-84
2022/04/12 04:28:33;;;;;;;7.97;7.27;;;5.60;99.90;;;;;;5136569;27;20631;-82
2022/04/12 04:31:00;;;;;;;8.87;6.90;;;5.30;99.90;;;;;;5147138;27;21337;-84
2022/04/12 04:33:28;;;;;;;7.17;6.60;;;5.30;99.90;;;;;;5144570;27;20649;-84
2022/04/12 04:35:55;;;;;;;10.37;6.60;;;5.40;99.90;;;;;;5141694;27;20625;-83
2022/04/12 04:38:22;;;;;;;8.53;7.90;;;5.50;99.90;;;;;;5141860;27;20640;-84
2022/04/12 04:40:49;;;;;;;7.63;6.90;;;5.10;99.90;;;;;;5143183;27;20632;-84
2022/04/12 04:43:16;;;;;;;8.03;7.33;;;5.30;99.90;;;;;;5143532;27;20677;-84
2022/04/12 04:45:43;;;;;;;7.40;6.90;;;5.60;99.90;;;;;;5148165;27;20815;-83
2022/04/12 04:48:10;;;;;;;7.83;7.13;;;5.00;99.90;;;;;;5137902;27;20710;-84
2022/04/12 04:50:39;;;;;;;8.73;7.93;;;5.20;99.90;;;;;;5145336;27;20633;-81
2022/04/12 04:53:09;;;;;;;8.70;8.00;;;5.50;99.90;;;;;;5139641;27;21315;-82
2022/04/12 04:55:37;;;;;;;7.73;7.13;;;5.30;99.90;;;;;;5149372;27;20646;-82
2022/04/12 04:58:05;;;;;;;7.87;7.37;;;5.10;99.90;;;;;;5145553;27;20633;-82
2022/04/12 05:00:34;;;;;;;8.33;7.50;;;5.50;99.90;;;;;;5140419;27;20635;-82
2022/04/12 05:03:02;;;;;;;7.83;7.30;;;5.50;99.90;;;;;;5143154;27;20693;-83
2022/04/12 05:05:29;;;;;;;7.87;7.10;;;5.40;99.90;;;;;;5147562;27;20653;-84
2022/04/12 05:07:58;;;;;;;10.97;8.63;;;5.60;99.90;;;;;;5141343;27;20967;-82
2022/04/12 05:10:28;;;;;;;9.67;8.60;;;5.40;99.90;;;;;;5143671;27;20705;-84
2022/04/12 05:12:55;;;;;;;9.17;8.07;;;5.40;99.90;;;;;;5141700;27;20645;-81
2022/04/12 05:15:22;;;;;;;8.50;7.70;;;5.40;99.90;;;;;;5140562;27;20681;-82
2022/04/12 05:17:50;;;;;;;9.10;8.10;;;5.50;99.90;;;;;;5144216;27;20633;-83
2022/04/12 05:20:18;;;;;;;9.73;8.07;;;5.70;99.90;;;;;;5142231;27;21048;-82
2022/04/12 05:22:45;;;;;;;9.47;8.77;;;5.50;99.90;;;;;;5142317;27;20664;-82
2022/04/12 05:25:13;;;;;;;8.80;8.00;;;5.80;99.90;;;;;;5141002;27;21015;-82
2022/04/12 05:27:39;;;;;;;8.70;8.00;;;5.80;99.90;;;;;;5146116;27;21159;-82
2022/04/12 05:30:09;;;;;;;10.30;9.40;;;5.90;99.90;;;;;;5140553;27;21496;-83
2022/04/12 05:32:36;;;;;;;9.20;8.30;;;6.00;99.90;;;;;;5143067;27;20657;-83
2022/04/12 05:35:04;;;;;;;9.47;8.77;;;6.00;99.90;;;;;;5144030;27;20633;-83
2022/04/12 05:37:31;;;;;;;9.33;8.53;;;6.20;99.90;;;;;;5140040;27;20622;-83
2022/04/12 05:39:58;;;;;;;9.23;8.43;;;6.00;99.90;;;;;;5136751;27;20630;-83
2022/04/12 05:42:26;;;;;;;12.13;9.30;;;6.40;99.90;;;;;;5136858;27;20685;-83
2022/04/12 05:44:52;;;;;;;9.73;8.73;;;6.20;99.90;;;;;;5145629;27;20642;-83
2022/04/12 05:47:19;;;;;;;14.40;9.77;;;6.30;99.90;;;;;;5142043;27;20636;-83
2022/04/12 05:49:46;;;;;;;11.70;9.83;;;6.00;99.90;;;;;;5137001;27;20629;-84
2022/04/12 05:52:13;;;;;;;13.63;9.17;;;6.60;99.90;;;;;;5139755;27;20654;-84
2022/04/12 05:54:39;;;;;;;10.03;9.00;;;6.70;99.90;;;;;;5136497;27;21033;-84
2022/04/12 05:57:06;;;;;;;9.27;8.37;;;6.60;99.90;;;;;;5137999;27;20625;-84
2022/04/12 05:59:34;;;;;;;10.23;9.23;;;6.80;99.90;;;;;;5139965;27;21159;-84
2022/04/12 06:02:01;;;;;;;11.90;9.17;;;6.70;99.90;;;;;;5143576;27;20657;-84
2022/04/12 06:04:28;;;;;;;11.90;8.90;;;6.60;99.90;;;;;;5132236;27;20672;-85
2022/04/12 06:06:54;;;;;;;9.80;9.00;;;7.00;99.90;;;;;;5139733;27;21152;-85
2022/04/12 06:09:21;;;;;;;9.20;8.30;;;6.70;99.90;;;;;;5138385;27;20649;-83
2022/04/12 06:11:48;;;;;;;9.57;8.60;;;7.30;99.90;;;;;;5137185;27;20625;-84
2022/04/12 06:14:14;;;;;;;8.77;7.97;;;7.40;99.90;;;;;;5137618;27;21227;-84
2022/04/12 06:16:42;;;;;;;9.70;8.77;;;7.40;99.90;;;;;;5145172;27;20613;-86
2022/04/12 06:19:09;;;;;;;9.10;8.40;;;7.30;99.90;;;;;;5141397;27;20715;-85
2022/04/12 06:21:37;;;;;;;8.30;7.57;;;7.80;99.90;;;;;;5144491;27;21099;-84
2022/04/12 06:24:04;;;;;;;9.03;8.33;;;7.90;99.90;;;;;;5138150;27;20629;-84
2022/04/12 06:26:31;;;;;;;8.33;7.63;;;8.00;99.90;;;;;;5143316;27;20961;-83
2022/04/12 06:28:58;;;;;;;9.57;7.87;;;8.40;99.90;;;;;;5142222;27;20658;-85
2022/04/12 06:31:25;;;;;;;9.17;8.37;;;8.40;99.90;;;;;;5143489;27;20633;-84
2022/04/12 06:33:53;;;;;;;9.33;8.43;;;9.10;99.90;;;;;;5139485;27;21210;-84
2022/04/12 06:36:19;;;;;;;9.70;8.20;;;9.30;99.90;;;;;;5135058;27;20622;-84
2022/04/12 06:38:46;;;;;;;10.33;7.93;;;9.50;99.90;;;;;;5136453;27;20657;-84
2022/04/12 06:41:13;;;;;;;9.47;8.40;;;9.40;99.90;;;;;;5147161;27;20628;-84
2022/04/12 06:43:40;;;;;;;9.23;8.30;;;9.30;99.90;;;;;;5141629;27;20609;-85
2022/04/12 06:46:06;;;;;;;8.33;7.63;;;9.20;99.90;;;;;;5139649;27;20666;-84
2022/04/12 06:48:33;;;;;;;11.80;8.20;;;9.30;99.90;;;;;;5145356;27;20656;-84
2022/04/12 06:51:01;;;;;;;9.17;8.30;;;9.10;99.90;;;;;;5143954;27;20597;-84
2022/04/12 06:53:28;;;;;;;9.20;8.00;;;9.30;99.90;;;;;;5138427;27;20622;-84
2022/04/12 06:55:55;;;;;;;7.87;7.17;;;9.50;99.90;;;;;;5140431;27;20686;-84
2022/04/12 06:58:21;;;;;;;8.97;8.07;;;9.50;99.90;;;;;;5138454;27;20780;-85
2022/04/12 07:00:48;;;;;;;8.93;8.10;;;9.50;99.90;;;;;;5141992;27;21090;-85
2022/04/12 07:03:15;;;;;;;8.63;7.73;;;9.90;99.90;;;;;;5140890;27;20601;-85
2022/04/12 07:05:42;;;;;;;8.57;7.83;;;9.30;99.90;;;;;;5139409;27;20703;-82
2022/04/12 07:08:11;;;;;;;8.87;7.90;;;9.60;99.90;;;;;;5144421;27;20658;-82
2022/04/12 07:10:38;;;;;;;9.40;7.63;;;9.60;99.90;;;;;;5140046;27;20812;-82
2022/04/12 07:13:05;;;;;;;9.27;8.43;;;9.30;99.90;;;;;;5143143;27;20617;-82
2022/04/12 07:15:31;;;;;;;10.47;8.43;;;9.80;99.90;;;;;;5139729;27;20626;-83
2022/04/12 07:17:58;;;;;;;9.70;7.87;;;9.70;99.90;;;;;;5142817;27;20648;-82
2022/04/12 07:20:25;;;;;;;11.57;8.87;;;10.00;99.90;;;;;;5145432;27;21188;-83
2022/04/12 07:22:52;;;;;;;9.10;8.27;;;10.40;99.90;;;;;;5142053;27;20625;-82
2022/04/12 07:25:20;;;;;;;10.80;8.03;;;10.00;99.90;;;;;;5140531;27;21111;-83
2022/04/12 07:27:47;;;;;;;10.00;8.93;;;10.20;99.90;;;;;;5144661;27;20873;-83
2022/04/12 07:30:14;;;;;;;13.03;8.63;;;10.20;99.90;;;;;;5142051;27;21257;-82
2022/04/12 07:32:41;;;;;;;8.40;7.70;;;10.70;99.90;;;;;;5143718;27;21001;-82
2022/04/12 07:35:09;;;;;;;10.57;8.70;;;10.50;99.90;;;;;;5144075;27;20617;-82
2022/04/12 07:37:36;;;;;;;11.93;9.10;;;10.90;99.90;;;;;;5141564;27;21055;-82
2022/04/12 07:40:03;;;;;;;9.70;8.70;;;11.00;99.90;;;;;;5138429;27;20630;-82
2022/04/12 07:42:32;;;;;;;9.33;8.33;;;11.20;99.90;;;;;;5145318;27;21538;-84
2022/04/12 07:44:59;;;;;;;9.90;8.90;;;10.90;99.90;;;;;;5136132;27;20653;-84
2022/04/12 07:47:25;;;;;;;9.03;7.83;;;11.30;99.90;;;;;;5135116;27;20667;-84
2022/04/12 07:49:52;;;;;;;7.97;7.00;;;11.40;99.90;;;;;;5135858;27;20952;-84
2022/04/12 07:52:19;;;;;;;11.53;8.10;;;11.50;99.90;;;;;;5139671;27;20629;-85
2022/04/12 07:54:45;;;;;;;9.07;8.30;;;11.50;99.90;;;;;;5138730;27;20676;-82
2022/04/12 07:57:12;;;;;;;9.13;7.53;;;11.70;99.90;;;;;;5141413;27;20620;-85
2022/04/12 07:59:40;;;;;;;11.33;9.97;;;11.90;99.90;;;;;;5136590;27;20646;-84
2022/04/12 08:02:07;;;;;;;12.97;8.83;;;12.00;99.90;;;;;;5138268;27;20633;-84
2022/04/12 08:04:34;;;;;;;11.53;8.03;;;12.20;99.90;;;;;;5131294;27;20637;-84
2022/04/12 08:07:00;;;;;;;9.27;8.37;;;12.40;99.90;;;;;;5139117;27;20617;-84
2022/04/12 08:09:27;;;;;;;8.97;8.17;;;12.50;99.90;;;;;;5132008;27;20652;-84
2022/04/12 08:11:54;;;;;;;9.70;7.40;;;12.60;99.90;;;;;;5135966;27;20633;-84
2022/04/12 08:14:21;;;;;;;9.10;8.30;;;12.70;99.60;;;;;;5141906;27;20722;-84
2022/04/12 08:16:49;;;;;;;15.93;8.90;;;13.00;99.20;;;;;;5145788;27;20616;-84
2022/04/12 08:19:15;;;;;;;8.57;7.47;;;13.10;99.30;;;;;;5140869;27;21310;-84
2022/04/12 08:21:42;;;;;;;7.23;6.53;;;13.30;98.30;;;;;;5134830;27;20617;-83
2022/04/12 08:24:09;;;;;;;6.87;6.13;;;13.40;98.70;;;;;;5130361;27;20708;-84
2022/04/12 08:26:36;;;;;;;9.43;7.60;;;13.60;97.80;;;;;;5138880;27;20657;-84
2022/04/12 08:29:04;;;;;;;8.70;7.60;;;13.80;97.70;;;;;;5139955;27;20649;-84
2022/04/12 08:31:30;;;;;;;7.77;6.97;;;14.00;97.60;;;;;;5143019;27;21004;-84
2022/04/12 08:33:59;;;;;;;10.00;8.07;;;14.10;97.20;;;;;;5138105;27;20716;-84
2022/04/12 08:36:26;;;;;;;14.00;9.90;;;14.20;96.50;;;;;;5138725;27;20610;-84
2022/04/12 08:38:53;;;;;;;18.20;7.20;;;14.40;96.10;;;;;;5141222;27;21066;-83
2022/04/12 08:41:23;;;;;;;8.70;6.80;;;14.50;95.40;;;;;;5144120;27;20702;-84
2022/04/12 08:43:55;;;;;;;6.97;6.37;;;14.50;95.40;;;;;;5136347;27;20645;-84
2022/04/12 08:46:25;;;;;;;7.73;6.93;;;14.60;94.90;;;;;;5137066;27;20658;-82
2022/04/12 08:48:53;;;;;;;6.80;6.20;;;14.80;94.60;;;;;;5142223;27;20654;-82
2022/04/12 08:51:21;;;;;;;7.47;6.80;;;14.90;94.50;;;;;;5137734;27;21191;-84
2022/04/12 08:53:48;;;;;;;8.00;6.73;;;15.00;94.20;;;;;;5137435;27;21441;-84
2022/04/12 08:56:15;;;;;;;8.77;6.37;;;15.10;93.90;;;;;;5131814;27;20630;-83
2022/04/12 08:58:42;;;;;;;6.90;6.30;;;15.30;93.80;;;;;;5138599;27;20677;-84
2022/04/12 09:01:08;;;;;;;7.00;5.70;;;15.40;93.60;;;;;;5135825;27;20638;-84
2022/04/12 09:03:35;;;;;;;7.40;6.70;;;15.50;93.20;;;;;;5134133;27;20649;-83
2022/04/12 09:06:02;;;;;;;6.33;5.83;;;15.60;93.30;;;;;;5125615;27;20664;-83
2022/04/12 09:08:31;;;;;;;7.90;6.20;;;15.80;93.00;;;;;;5132515;27;20649;-84
2022/04/12 09:11:00;;;;;;;5.77;5.20;;;16.00;92.20;;;;;;5139865;27;20625;-83
2022/04/12 09:13:27;;;;;;;7.30;5.50;;;16.00;92.20;;;;;;5138760;27;20658;-84
2022/04/12 09:15:54;;;;;;;8.10;5.80;;;16.00;92.30;;;;;;5140208;27;20607;-84
2022/04/12 09:18:35;;;;;;;6.20;5.60;;;16.10;92.00;;;;;;5139936;27;20656;-84
2022/04/12 09:21:16;;;;;;;8.60;6.37;;;16.20;92.10;;;;;;5141649;27;20698;-84
2022/04/12 09:23:45;;;;;;;6.83;6.23;;;16.40;91.10;;;;;;5138711;27;20617;-82
2022/04/12 09:26:16;;;;;;;6.83;6.20;;;16.50;91.20;;;;;;5138355;27;20662;-82
2022/04/12 09:28:44;;;;;;;10.83;7.60;;;16.60;90.50;;;;;;5137749;27;20730;-85
2022/04/12 09:31:12;;;;;;;7.97;7.00;;;16.70;90.80;;;;;;5143264;27;20825;-83
2022/04/12 09:33:40;;;;;;;7.97;7.17;;;16.70;90.60;;;;;;5140007;27;20725;-83
2022/04/12 09:36:07;;;;;;;11.20;8.27;;;16.90;91.00;;;;;;5139567;27;20621;-83
2022/04/12 09:38:34;;;;;;;7.30;6.60;;;16.90;90.30;;;;;;5135284;27;20657;-83
2022/04/12 09:41:22;;;;;;;9.93;6.20;;;17.00;90.30;;;;;;5144623;27;20625;-83
2022/04/12 09:44:05;;;;;;;8.10;7.30;;;17.20;90.70;;;;;;5139967;27;20621;-83
2022/04/12 09:46:33;;;;;;;6.77;6.17;;;17.40;90.00;;;;;;5140380;27;20705;-84
2022/04/12 09:49:00;;;;;;;6.03;5.43;;;17.60;89.20;;;;;;5134764;27;20652;-83
2022/04/12 09:51:27;;;;;;;7.20;5.40;;;17.70;87.70;;;;;;5139175;27;20622;-84
2022/04/12 09:53:54;;;;;;;6.10;5.13;;;17.90;86.90;;;;;;5136425;27;20970;-84
2022/04/12 09:56:24;;;;;;;3.83;3.50;;;18.00;87.10;;;;;;5139655;27;20613;-84
2022/04/12 09:58:53;;;;;;;6.10;3.53;;;18.10;82.60;;;;;;5139012;27;20650;-84
2022/04/12 10:01:20;;;;;;;4.73;3.00;;;18.30;83.10;;;;;;5135713;27;20634;-83
2022/04/12 10:03:50;;;;;;;5.93;4.10;;;18.40;82.20;;;;;;5137508;27;20648;-83
2022/04/12 10:06:19;;;;;;;6.40;3.67;;;18.50;81.80;;;;;;5140947;27;21061;-83
2022/04/12 10:08:51;;;;;;;4.40;4.10;;;18.60;81.70;;;;;;5142169;27;20649;-83
2022/04/12 10:11:18;;;;;;;3.70;3.27;;;18.80;81.20;;;;;;5141601;27;20632;-83
2022/04/12 10:13:47;;;;;;;4.33;3.83;;;18.90;79.80;;;;;;5142104;27;20621;-83
2022/04/12 10:16:16;;;;;;;8.33;3.80;;;19.10;79.50;;;;;;5140310;27;20618;-83
2022/04/12 10:18:43;;;;;;;7.40;3.17;;;19.40;79.80;;;;;;5140726;27;20654;-83
2022/04/12 10:21:12;;;;;;;4.17;3.63;;;19.70;78.30;;;;;;5137971;27;20625;-83
2022/04/12 10:23:42;;;;;;;6.60;3.50;;;19.80;76.80;;;;;;5138520;27;21020;-83
2022/04/12 10:26:10;;;;;;;3.80;2.60;;;20.00;75.80;;;;;;5143290;27;20714;-83
2022/04/12 10:28:38;;;;;;;6.63;2.87;;;20.20;76.00;;;;;;5138956;27;20669;-83
2022/04/12 10:31:20;;;;;;;3.47;3.03;;;20.50;76.40;;;;;;5141626;27;21163;-83
2022/04/12 10:34:04;;;;;;;2.73;2.53;;;20.70;74.10;;;;;;5138870;27;20657;-83
2022/04/12 10:37:04;;;;;;;5.23;2.90;;;20.90;72.20;;;;;;5136697;27;20618;-83
2022/04/12 10:39:36;;;;;;;3.83;3.23;;;21.10;71.90;;;;;;5136406;27;20654;-83
2022/04/12 10:42:09;;;;;;;3.80;3.10;;;21.40;72.10;;;;;;5141139;27;20614;-83
2022/04/12 10:44:44;;;;;;;4.60;2.83;;;21.50;70.50;;;;;;5137691;27;20614;-83
2022/04/12 10:47:32;;;;;;;3.37;2.53;;;21.50;69.70;;;;;;5135945;27;20664;-83
2022/04/12 10:50:01;;;;;;;3.73;3.43;;;21.80;69.60;;;;;;5138215;27;20628;-83
2022/04/12 10:52:42;;;;;;;2.90;2.33;;;21.90;68.30;;;;;;5139626;27;20628;-84
2022/04/12 10:55:11;;;;;;;3.60;2.77;;;22.10;67.40;;;;;;5139295;27;21080;-83
2022/04/12 10:57:37;;;;;;;4.43;3.27;;;22.30;66.40;;;;;;5137884;27;20614;-82
2022/04/12 11:00:10;;;;;;;4.00;2.50;;;22.60;66.70;;;;;;5137078;27;20974;-83
2022/04/12 11:02:41;;;;;;;5.80;2.07;;;22.90;65.80;;;;;;5141151;27;20626;-84
2022/04/12 11:05:28;;;;;;;3.93;2.40;;;22.70;63.00;;;;;;5139537;27;20616;-83
2022/04/12 11:07:55;;;;;;;3.00;2.80;;;22.60;63.90;;;;;;5140277;27;20645;-84
2022/04/12 11:10:23;;;;;;;2.10;1.90;;;22.80;64.40;;;;;;5132801;27;20630;-83
2022/04/12 11:12:52;;;;;;;3.03;2.03;;;23.00;63.70;;;;;;5141648;27;20622;-84
2022/04/12 11:15:27;;;;;;;3.43;1.90;;;23.40;61.80;;;;;;5135366;27;21404;-83
2022/04/12 11:18:14;;;;;;;4.13;1.67;;;23.80;61.60;;;;;;5139807;27;21085;-84
2022/04/12 11:20:44;;;;;;;4.43;1.90;;;24.10;60.50;;;;;;5142617;27;20619;-84
2022/04/12 11:23:12;;;;;;;1.80;1.70;;;24.50;58.80;;;;;;5138483;27;20609;-84
2022/04/12 11:25:46;;;;;;;2.60;2.17;;;24.60;58.70;;;;;;5138460;27;21009;-84
2022/04/12 11:28:15;;;;;;;5.53;1.90;;;24.90;58.30;;;;;;5142490;27;21375;-84
2022/04/12 11:30:42;;;;;;;4.00;2.37;;;25.20;58.00;;;;;;5149650;27;20616;-83
2022/04/12 11:33:09;;;;;;;1.70;1.60;;;25.50;58.90;;;;;;5144377;27;20633;-83
2022/04/12 11:35:39;;;;;;;2.90;1.73;;;25.70;58.00;;;;;;5142079;27;20668;-83
2022/04/12 11:38:06;;;;;;;4.20;1.57;;;25.90;57.70;;;;;;5145119;27;21252;-83
2022/04/12 11:40:33;;;;;;;1.87;1.60;;;25.80;55.60;;;;;;5139205;27;20645;-83
2022/04/12 11:43:00;;;;;;;1.87;1.60;;;25.80;54.70;;;;;;5141877;27;20624;-84
2022/04/12 11:45:33;;;;;;;2.70;1.80;;;25.70;55.30;;;;;;5147130;27;20621;-83
2022/04/12 11:48:00;;;;;;;5.80;1.70;;;25.40;54.50;;;;;;5142762;27;20666;-84
2022/04/12 11:50:28;;;;;;;3.27;1.53;;;25.60;54.70;;;;;;5139210;27;20978;-84
2022/04/12 11:52:58;;;;;;;6.63;1.60;;;25.80;55.20;;;;;;5140304;27;21203;-84
2022/04/12 11:55:25;;;;;;;3.33;1.90;;;25.90;55.70;;;;;;5145251;27;20614;-85
2022/04/12 11:57:52;;;;;;;2.50;2.00;;;26.10;53.80;;;;;;5143391;27;20668;-84
2022/04/12 12:00:21;;;;;;;1.60;1.50;;;26.10;54.40;;;;;;5144205;27;20643;-84
2022/04/12 12:02:53;;;;;;;2.77;1.40;;;26.20;53.30;;;;;;5144906;27;20629;-84
2022/04/12 12:05:21;;;;;;;1.63;1.50;;;26.10;51.40;;;;;;5140260;27;20625;-83
2022/04/12 12:07:48;;;;;;;1.40;1.30;;;25.70;51.90;;;;;;5138595;27;20669;-83
2022/04/12 12:10:16;;;;;;;1.40;1.30;;;25.50;52.10;;;;;;5137631;27;21194;-84
2022/04/12 12:12:45;;;;;;;1.23;1.13;;;25.50;53.10;;;;;;5140351;27;20633;-84
2022/04/12 12:15:14;;;;;;;2.27;1.67;;;25.70;53.60;;;;;;5138774;27;20621;-85
2022/04/12 12:17:41;;;;;;;1.00;1.00;;;25.80;53.80;;;;;;5136969;27;20649;-84
2022/04/12 12:20:09;;;;;;;2.40;1.20;;;26.00;53.50;;;;;;5145148;27;20976;-84
2022/04/12 12:22:37;;;;;;;1.53;1.43;;;26.00;50.50;;;;;;5143153;27;20702;-85
2022/04/12 12:25:05;;;;;;;3.33;1.40;;;25.90;51.00;;;;;;5142500;27;20659;-83
2022/04/12 12:27:35;;;;;;;2.67;1.50;;;26.00;52.00;;;;;;5146524;27;20657;-84
2022/04/12 12:30:07;;;;;;;2.07;1.40;;;25.90;51.00;;;;;;5140631;27;20648;-84
2022/04/12 12:32:35;;;;;;;1.50;1.40;;;26.10;51.60;;;;;;5144465;27;20636;-85
2022/04/12 12:35:04;;;;;;;1.30;1.10;;;26.30;51.90;;;;;;5139821;27;20617;-85
2022/04/12 12:37:30;;;;;;;2.40;1.53;;;26.40;49.10;;;;;;5142254;27;20622;-85
2022/04/12 12:39:57;;;;;;;1.80;1.40;;;26.40;49.70;;;;;;5136796;27;20654;-84
2022/04/12 12:42:24;;;;;;;1.47;1.00;;;26.60;50.10;;;;;;5141089;27;20617;-84
2022/04/12 12:44:52;;;;;;;3.07;1.30;;;26.80;49.70;;;;;;5140287;27;20614;-83
2022/04/12 12:47:22;;;;;;;4.40;1.27;;;26.70;49.00;;;;;;5140011;27;20645;-85
2022/04/12 12:49:51;;;;;;;1.50;1.00;;;26.80;49.20;;;;;;5142960;27;20621;-85
2022/04/12 12:52:19;;;;;;;2.03;1.10;;;26.70;50.50;;;;;;5143693;27;20992;-82
2022/04/12 12:54:55;;;;;;;2.33;1.30;;;26.80;49.70;;;;;;5141155;27;20718;-83
2022/04/12 12:57:36;;;;;;;1.47;1.30;;;26.90;48.40;;;;;;5138552;27;20729;-84